Time;durP1;ratioP1;P1;durP2;ratioP2;P2;SDS_P1;SDS_P2;PMS_P1;PMS_P2;Temp;Humidity;BMP_temperature;BMP_pressure;BME280_temperature;BME280_humidity;BME280_pressure;Samples;Min_cycle;Max_cycle;Signal;HPM_P1;HPM_P2
2021/03/23 00:00:43;;;;;;;3.60;1.08;;;7.70;58.80;;;;;;4949077;28;20401;-80
2021/03/23 00:03:14;;;;;;;6.85;2.63;;;7.70;58.80;;;;;;4949813;29;20032;-79
2021/03/23 00:05:41;;;;;;;3.20;1.73;;;7.70;58.90;;;;;;4929197;29;20046;-80
2021/03/23 00:08:08;;;;;;;3.30;1.38;;;7.60;58.90;;;;;;4941428;29;20035;-79
2021/03/23 00:10:34;;;;;;;4.25;1.77;;;7.60;58.90;;;;;;4937904;29;20027;-79
2021/03/23 00:13:00;;;;;;;9.80;2.10;;;7.60;59.00;;;;;;4937294;28;20035;-79
2021/03/23 00:15:26;;;;;;;4.78;2.25;;;7.50;59.60;;;;;;4950501;28;20028;-80
2021/03/23 00:17:53;;;;;;;4.03;1.83;;;7.50;59.10;;;;;;4947698;29;20030;-79
2021/03/23 00:20:22;;;;;;;2.25;1.20;;;7.50;59.10;;;;;;4948901;29;20031;-80
2021/03/23 00:22:48;;;;;;;6.00;2.00;;;7.40;59.10;;;;;;4935009;29;20035;-79
2021/03/23 00:25:14;;;;;;;4.22;1.17;;;7.40;59.10;;;;;;4952461;29;20038;-79
2021/03/23 00:27:41;;;;;;;3.25;1.30;;;7.40;59.10;;;;;;4947038;29;20408;-80
2021/03/23 00:30:09;;;;;;;20.40;2.00;;;7.40;59.20;;;;;;4946675;28;20035;-80
2021/03/23 00:32:35;;;;;;;2.20;1.42;;;7.30;59.20;;;;;;4957495;28;20039;-79
2021/03/23 00:35:02;;;;;;;5.18;1.58;;;7.30;59.30;;;;;;4948963;29;20035;-79
2021/03/23 00:37:28;;;;;;;2.72;1.55;;;7.30;59.30;;;;;;4937013;29;20384;-80
2021/03/23 00:39:55;;;;;;;8.85;2.45;;;7.30;59.30;;;;;;4950805;29;20035;-80
2021/03/23 00:42:21;;;;;;;1.70;0.65;;;7.30;59.40;;;;;;4948047;28;20035;-80
2021/03/23 00:44:47;;;;;;;3.63;1.15;;;7.30;59.40;;;;;;4948545;29;20042;-79
2021/03/23 00:47:14;;;;;;;3.08;1.65;;;7.20;59.40;;;;;;4936486;29;20097;-80
2021/03/23 00:49:41;;;;;;;1.95;1.27;;;7.20;59.40;;;;;;4946942;29;20035;-80
2021/03/23 00:52:07;;;;;;;3.35;1.83;;;7.20;59.40;;;;;;4952555;29;20039;-79
2021/03/23 00:54:33;;;;;;;3.75;1.33;;;7.20;59.50;;;;;;4953623;29;20035;-82
2021/03/23 00:56:59;;;;;;;4.57;1.65;;;7.20;59.50;;;;;;4948355;29;20031;-80
2021/03/23 00:59:25;;;;;;;2.38;1.52;;;7.20;59.50;;;;;;4952966;29;20034;-80
2021/03/23 01:01:51;;;;;;;6.10;1.45;;;7.20;59.60;;;;;;4946590;28;20032;-79
2021/03/23 01:04:17;;;;;;;5.70;1.73;;;7.10;59.60;;;;;;4951258;29;20038;-79
2021/03/23 01:06:43;;;;;;;8.75;1.27;;;7.10;59.60;;;;;;4947647;28;20043;-80
2021/03/23 01:09:09;;;;;;;5.80;1.98;;;7.00;59.70;;;;;;4933934;28;20047;-79
2021/03/23 01:11:36;;;;;;;4.63;0.80;;;7.00;59.70;;;;;;4925808;29;20469;-79
2021/03/23 01:14:02;;;;;;;6.40;1.95;;;6.90;59.80;;;;;;4937256;29;20047;-79
2021/03/23 01:16:28;;;;;;;2.58;1.00;;;6.90;59.80;;;;;;4943614;28;20032;-79
2021/03/23 01:18:54;;;;;;;1.67;0.85;;;6.90;59.80;;;;;;4945219;29;20070;-79
2021/03/23 01:21:20;;;;;;;1.37;0.43;;;6.90;59.80;;;;;;4929017;29;20035;-80
2021/03/23 01:23:46;;;;;;;3.67;1.35;;;6.80;59.80;;;;;;4927748;29;20020;-79
2021/03/23 01:26:12;;;;;;;1.77;0.73;;;6.80;59.90;;;;;;4927759;29;20404;-79
2021/03/23 01:28:38;;;;;;;0.57;0.45;;;6.80;59.90;;;;;;4945991;29;20036;-80
2021/03/23 01:31:05;;;;;;;1.95;0.93;;;6.70;59.90;;;;;;4932560;28;20062;-79
2021/03/23 01:33:31;;;;;;;4.25;1.77;;;6.70;60.00;;;;;;4930785;29;20039;-80
2021/03/23 01:35:57;;;;;;;5.83;1.10;;;6.60;60.10;;;;;;4937215;29;20492;-80
2021/03/23 01:38:23;;;;;;;1.13;0.60;;;6.60;60.10;;;;;;4913395;29;20043;-79
2021/03/23 01:40:49;;;;;;;2.63;1.23;;;6.60;60.10;;;;;;4935414;29;20370;-79
2021/03/23 01:43:29;;;;;;;1.75;1.13;;;6.60;60.20;;;;;;4945500;29;20036;-79
2021/03/23 01:45:56;;;;;;;1.85;1.05;;;6.50;60.20;;;;;;4931703;28;20036;-79
2021/03/23 01:48:30;;;;;;;3.35;0.60;;;6.50;60.20;;;;;;4928259;29;20040;-79
2021/03/23 01:51:04;;;;;;;3.90;2.05;;;6.50;60.20;;;;;;4935639;29;20040;-80
2021/03/23 01:53:34;;;;;;;2.87;0.60;;;6.50;60.30;;;;;;4917571;29;20040;-80
2021/03/23 01:56:00;;;;;;;2.67;1.40;;;6.50;60.30;;;;;;4928979;29;20042;-80
2021/03/23 01:58:27;;;;;;;1.83;0.80;;;6.40;60.30;;;;;;4899233;29;20495;-80
2021/03/23 02:00:53;;;;;;;4.28;0.90;;;6.40;60.30;;;;;;4928808;29;20039;-79
2021/03/23 02:03:19;;;;;;;5.77;0.50;;;6.40;60.40;;;;;;4924133;29;20052;-80
2021/03/23 02:05:54;;;;;;;1.08;0.55;;;6.30;60.40;;;;;;4910742;29;20054;-79
2021/03/23 02:08:20;;;;;;;2.67;0.83;;;6.30;60.50;;;;;;4948976;29;20032;-79
2021/03/23 02:10:46;;;;;;;2.80;0.60;;;6.20;60.50;;;;;;4934833;29;20039;-79
2021/03/23 02:13:12;;;;;;;3.37;0.50;;;6.20;60.70;;;;;;4916992;29;20421;-79
2021/03/23 02:15:38;;;;;;;3.80;0.87;;;6.10;60.90;;;;;;4916317;29;20036;-79
2021/03/23 02:18:07;;;;;;;1.33;0.90;;;6.00;60.90;;;;;;4937137;29;20476;-79
2021/03/23 02:20:33;;;;;;;6.43;0.88;;;6.00;60.90;;;;;;4936055;29;20047;-80
2021/03/23 02:23:08;;;;;;;1.87;1.13;;;6.00;61.70;;;;;;4939998;29;20047;-79
2021/03/23 02:25:35;;;;;;;2.20;1.17;;;6.00;60.90;;;;;;4952156;29;20039;-79
2021/03/23 02:28:01;;;;;;;1.90;0.93;;;5.90;60.80;;;;;;4936321;29;20504;-79
2021/03/23 02:30:34;;;;;;;0.90;0.47;;;5.90;60.80;;;;;;4940689;28;20039;-79
2021/03/23 02:33:01;;;;;;;3.57;1.27;;;5.90;60.80;;;;;;4950925;29;20078;-79
2021/03/23 02:35:27;;;;;;;2.43;1.27;;;5.90;60.80;;;;;;4937323;29;20027;-79
2021/03/23 02:37:53;;;;;;;1.30;0.77;;;5.80;60.90;;;;;;4937223;29;20036;-79
2021/03/23 02:40:19;;;;;;;2.40;0.37;;;5.80;60.90;;;;;;4936154;29;20024;-80
2021/03/23 02:42:45;;;;;;;7.13;1.33;;;5.80;61.00;;;;;;4937340;29;20043;-80
2021/03/23 02:45:11;;;;;;;1.77;0.70;;;5.80;61.00;;;;;;4940260;28;20396;-79
2021/03/23 02:47:38;;;;;;;3.50;1.13;;;5.80;61.10;;;;;;4951474;29;20105;-82
2021/03/23 02:50:05;;;;;;;2.13;0.60;;;5.80;61.10;;;;;;4939894;29;20027;-79
2021/03/23 02:52:31;;;;;;;1.50;0.23;;;5.70;61.00;;;;;;4937057;29;20039;-79
2021/03/23 02:54:57;;;;;;;5.63;0.90;;;5.70;61.10;;;;;;4951295;29;20058;-80
2021/03/23 02:57:23;;;;;;;2.43;0.97;;;5.70;61.10;;;;;;4940494;29;20040;-81
2021/03/23 02:59:49;;;;;;;2.00;0.93;;;5.70;61.10;;;;;;4936639;29;20302;-80
2021/03/23 03:02:15;;;;;;;2.70;0.70;;;5.80;61.20;;;;;;4929122;28;20066;-79
2021/03/23 03:04:43;;;;;;;5.87;1.50;;;5.80;61.20;;;;;;4929318;29;20027;-79
2021/03/23 03:07:09;;;;;;;0.17;0.10;;;5.80;61.20;;;;;;4971191;28;20491;-79
2021/03/23 03:09:36;;;;;;;0.90;0.43;;;5.80;61.20;;;;;;4937776;28;20046;-81
2021/03/23 03:12:02;;;;;;;2.87;0.97;;;5.70;61.30;;;;;;4953112;29;20132;-80
2021/03/23 03:14:28;;;;;;;2.20;1.50;;;5.70;61.30;;;;;;4944280;28;20054;-79
2021/03/23 03:16:54;;;;;;;2.47;0.83;;;5.60;61.40;;;;;;4952140;28;20028;-79
2021/03/23 03:19:20;;;;;;;5.10;1.63;;;5.60;61.40;;;;;;4958740;28;20039;-79
2021/03/23 03:21:46;;;;;;;1.73;0.70;;;5.60;61.40;;;;;;4952253;28;20046;-81
2021/03/23 03:24:12;;;;;;;3.23;0.97;;;5.60;61.50;;;;;;4956235;28;20034;-80
2021/03/23 03:26:39;;;;;;;11.70;1.50;;;5.60;61.50;;;;;;4947817;29;20031;-79
2021/03/23 03:29:05;;;;;;;1.37;0.73;;;5.60;61.60;;;;;;4961472;28;20023;-79
2021/03/23 03:31:31;;;;;;;2.47;0.83;;;5.60;61.60;;;;;;4971585;28;20373;-82
2021/03/23 03:33:58;;;;;;;0.93;0.37;;;5.60;61.60;;;;;;4924238;28;20411;-80
2021/03/23 03:36:26;;;;;;;3.50;0.93;;;5.60;61.60;;;;;;4967066;28;20038;-79
2021/03/23 03:38:52;;;;;;;3.90;1.27;;;5.50;61.60;;;;;;4941979;29;20038;-79
2021/03/23 03:41:19;;;;;;;0.97;0.47;;;5.50;61.60;;;;;;4937174;28;20023;-79
2021/03/23 03:43:45;;;;;;;4.50;0.83;;;5.50;61.70;;;;;;4937125;28;20039;-79
2021/03/23 03:46:11;;;;;;;4.17;0.97;;;5.50;61.70;;;;;;4969155;28;20039;-80
2021/03/23 03:48:37;;;;;;;1.57;0.63;;;5.50;61.80;;;;;;4966643;28;20093;-80
2021/03/23 03:51:04;;;;;;;1.90;1.50;;;5.50;61.90;;;;;;4957333;28;20026;-79
2021/03/23 03:53:30;;;;;;;4.87;1.40;;;5.50;61.90;;;;;;4964336;28;20047;-79
2021/03/23 03:55:56;;;;;;;4.70;0.77;;;5.40;61.90;;;;;;4944363;28;20031;-79
2021/03/23 03:58:22;;;;;;;16.27;0.90;;;5.40;61.90;;;;;;4966797;28;20031;-79
2021/03/23 04:00:49;;;;;;;4.30;1.10;;;5.40;62.00;;;;;;4971018;28;20043;-80
2021/03/23 04:03:26;;;;;;;0.93;0.57;;;5.40;62.00;;;;;;4957429;28;20038;-79
2021/03/23 04:05:52;;;;;;;2.30;1.00;;;5.40;62.00;;;;;;4962944;28;20043;-79
2021/03/23 04:08:24;;;;;;;8.43;1.03;;;5.30;62.00;;;;;;4961045;28;20019;-79
2021/03/23 04:10:50;;;;;;;1.80;0.57;;;5.30;62.00;;;;;;4966946;28;20031;-81
2021/03/23 04:13:17;;;;;;;4.07;1.67;;;5.30;62.10;;;;;;4971397;28;20039;-79
2021/03/23 04:15:44;;;;;;;1.83;1.20;;;5.30;62.20;;;;;;4966541;28;20039;-81
2021/03/23 04:18:11;;;;;;;1.37;1.27;;;5.20;62.20;;;;;;4957299;28;20041;-80
2021/03/23 04:20:38;;;;;;;4.03;0.87;;;5.20;62.30;;;;;;4966920;28;20042;-85
2021/03/23 04:23:05;;;;;;;1.00;0.43;;;5.10;62.30;;;;;;4963637;28;20047;-79
2021/03/23 04:25:31;;;;;;;2.23;1.37;;;5.10;62.40;;;;;;4957192;28;20042;-79
2021/03/23 04:27:58;;;;;;;1.07;0.50;;;5.10;62.40;;;;;;4971512;28;20302;-80
2021/03/23 04:30:25;;;;;;;3.30;1.03;;;5.10;62.40;;;;;;4968194;28;20034;-79
2021/03/23 04:32:52;;;;;;;1.87;0.93;;;5.10;62.40;;;;;;4963630;28;20043;-78
2021/03/23 04:35:39;;;;;;;8.43;2.03;;;5.00;62.30;;;;;;4942742;29;20050;-81
2021/03/23 04:38:05;;;;;;;11.20;1.07;;;5.00;62.40;;;;;;4959190;28;20072;-79
2021/03/23 04:40:32;;;;;;;0.87;0.40;;;5.00;62.40;;;;;;4936647;29;20046;-79
2021/03/23 04:42:58;;;;;;;10.17;1.93;;;5.00;62.40;;;;;;4937867;28;20042;-79
2021/03/23 04:45:24;;;;;;;1.07;0.20;;;5.00;62.40;;;;;;4968276;28;20031;-80
2021/03/23 04:47:50;;;;;;;4.20;0.90;;;5.00;62.50;;;;;;4962039;28;20024;-79
2021/03/23 04:50:17;;;;;;;1.33;0.60;;;5.00;62.50;;;;;;4960355;28;20030;-79
2021/03/23 04:52:43;;;;;;;0.50;0.37;;;5.00;62.50;;;;;;4935319;28;20062;-79
2021/03/23 04:55:10;;;;;;;1.77;0.93;;;5.00;62.50;;;;;;4923120;28;20054;-79
2021/03/23 04:57:36;;;;;;;3.00;1.20;;;4.90;62.60;;;;;;4952583;28;20506;-79
2021/03/23 05:00:05;;;;;;;5.17;1.60;;;4.90;62.60;;;;;;4950741;28;20046;-80
2021/03/23 05:02:31;;;;;;;0.50;0.33;;;4.90;62.60;;;;;;4946080;29;20023;-79
2021/03/23 05:04:57;;;;;;;4.83;1.83;;;4.90;62.70;;;;;;4959125;28;20039;-79
2021/03/23 05:07:24;;;;;;;1.07;0.63;;;4.90;62.70;;;;;;4964625;28;20031;-80
2021/03/23 05:09:50;;;;;;;2.60;1.30;;;4.90;62.70;;;;;;4951947;28;20039;-79
2021/03/23 05:12:16;;;;;;;4.97;2.67;;;4.90;62.70;;;;;;4955912;28;20038;-79
2021/03/23 05:14:42;;;;;;;3.80;1.17;;;4.80;62.70;;;;;;4966042;28;20050;-79
2021/03/23 05:17:09;;;;;;;0.70;0.40;;;4.80;62.70;;;;;;4962877;28;20031;-79
2021/03/23 05:19:35;;;;;;;3.03;2.30;;;4.80;62.80;;;;;;4940348;28;20042;-79
2021/03/23 05:22:02;;;;;;;2.20;1.20;;;4.80;62.90;;;;;;4938307;28;20023;-79
2021/03/23 05:24:28;;;;;;;4.63;1.40;;;4.80;62.90;;;;;;4951754;28;20395;-79
2021/03/23 05:26:54;;;;;;;1.90;0.70;;;4.80;62.90;;;;;;4961300;28;20046;-79
2021/03/23 05:29:20;;;;;;;0.67;0.50;;;4.80;62.90;;;;;;4940730;29;20032;-79
2021/03/23 05:31:47;;;;;;;3.17;1.17;;;4.70;62.90;;;;;;4928443;28;20042;-79
2021/03/23 05:34:13;;;;;;;14.80;1.20;;;4.70;63.00;;;;;;4952791;28;20050;-79
2021/03/23 05:36:42;;;;;;;2.33;1.27;;;4.60;63.10;;;;;;4968882;28;20484;-79
2021/03/23 05:39:08;;;;;;;1.33;0.50;;;4.60;63.10;;;;;;4956349;28;20464;-78
2021/03/23 05:41:55;;;;;;;1.40;0.77;;;4.60;63.20;;;;;;4943609;28;20043;-79
2021/03/23 05:44:40;;;;;;;1.63;0.90;;;4.50;63.90;;;;;;4965826;28;20035;-79
2021/03/23 05:47:13;;;;;;;1.40;0.73;;;4.50;63.10;;;;;;4965493;28;20047;-79
2021/03/23 05:49:47;;;;;;;1.97;0.30;;;4.60;63.20;;;;;;4965974;28;20027;-79
2021/03/23 05:53:11;;;;;;;6.47;1.37;;;4.50;63.10;;;;;;4940584;28;20026;-79
2021/03/23 05:55:46;;;;;;;1.97;0.63;;;4.50;63.20;;;;;;4889389;29;20053;-83
2021/03/23 05:58:21;;;;;;;7.00;1.20;;;4.50;63.10;;;;;;4897917;29;20045;-78
2021/03/23 06:01:21;;;;;;;2.20;0.60;;;4.50;63.10;;;;;;4884328;29;20081;-79
2021/03/23 06:03:49;;;;;;;1.33;0.77;;;4.50;63.10;;;;;;4882116;29;20055;-80
2021/03/23 06:06:40;;;;;;;4.83;0.90;;;4.50;63.10;;;;;;4878493;29;20056;-80
2021/03/23 06:09:13;;;;;;;3.00;1.50;;;4.50;63.20;;;;;;4894073;29;20047;-79
2021/03/23 06:11:40;;;;;;;0.93;0.23;;;4.50;63.30;;;;;;4893281;29;20036;-80
2021/03/23 06:14:23;;;;;;;1.43;0.97;;;4.50;63.30;;;;;;4897610;29;20037;-79
2021/03/23 06:17:05;;;;;;;2.03;0.87;;;4.50;63.30;;;;;;4879220;29;20399;-79
2021/03/23 06:19:31;;;;;;;;;;;4.40;63.30;;;;;;4894914;29;20036;-78
2021/03/23 06:22:35;;;;;;;6.97;1.07;;;4.40;63.40;;;;;;4896602;29;19978;-79
2021/03/23 06:25:18;;;;;;;0.97;0.87;;;4.30;63.60;;;;;;4824739;29;20046;-79
2021/03/23 06:27:55;;;;;;;0.17;0.00;;;4.30;63.80;;;;;;4826387;29;20552;-79
2021/03/23 06:31:05;;;;;;;0.93;0.37;;;4.20;64.10;;;;;;4843237;29;20037;-80
2021/03/23 06:33:31;;;;;;;0.77;0.33;;;4.10;64.40;;;;;;4860524;29;20045;-81
2021/03/23 06:36:00;;;;;;;1.80;0.93;;;4.00;64.60;;;;;;4861244;29;20049;-80
2021/03/23 06:38:34;;;;;;;0.43;0.30;;;4.00;64.80;;;;;;4830847;29;20403;-79
2021/03/23 06:41:22;;;;;;;0.47;0.27;;;4.00;64.90;;;;;;4844976;29;20048;-78
2021/03/23 06:43:54;;;;;;;2.73;1.33;;;4.00;65.00;;;;;;4861207;29;20041;-80
2021/03/23 06:46:24;;;;;;;2.90;1.80;;;4.20;65.70;;;;;;4845671;29;20049;-79
2021/03/23 06:49:07;;;;;;;0.63;0.40;;;4.40;64.60;;;;;;4861012;29;20041;-81
2021/03/23 06:51:34;;;;;;;0.13;0.10;;;4.70;64.00;;;;;;4845043;29;20045;-79
2021/03/23 06:54:19;;;;;;;0.77;0.73;;;4.90;63.50;;;;;;4846421;29;20058;-80
2021/03/23 06:56:45;;;;;;;2.67;0.50;;;5.20;62.90;;;;;;4845324;29;20057;-79
2021/03/23 06:59:19;;;;;;;1.37;1.27;;;5.50;62.50;;;;;;4860868;29;20041;-80
2021/03/23 07:01:48;;;;;;;1.07;0.67;;;5.70;62.00;;;;;;4842628;29;20052;-80
2021/03/23 07:04:24;;;;;;;5.50;1.67;;;5.80;61.90;;;;;;4895926;29;20044;-79
2021/03/23 07:07:19;;;;;;;2.20;0.50;;;5.90;61.90;;;;;;4909179;29;20413;-81
2021/03/23 07:09:52;;;;;;;1.73;1.23;;;6.00;62.00;;;;;;4889152;29;20048;-79
2021/03/23 07:12:19;;;;;;;0.00;0.00;;;6.10;62.20;;;;;;4942221;29;20035;-79
2021/03/23 07:14:48;;;;;;;3.57;1.93;;;6.20;62.10;;;;;;4948253;29;20039;-80
2021/03/23 07:17:26;;;;;;;1.73;1.17;;;6.30;62.20;;;;;;4935407;29;20400;-79
2021/03/23 07:19:54;;;;;;;3.60;1.87;;;6.40;62.20;;;;;;4933625;29;20062;-80
2021/03/23 07:22:39;;;;;;;0.57;0.32;;;6.50;62.00;;;;;;4936580;29;20050;-79
2021/03/23 07:25:26;;;;;;;0.60;0.50;;;6.70;61.80;;;;;;4939134;29;20028;-79
2021/03/23 07:28:28;;;;;;;0.08;0.05;;;6.80;61.70;;;;;;4969101;28;20046;-80
2021/03/23 07:31:08;;;;;;;1.30;0.52;;;6.90;61.70;;;;;;4951765;28;20046;-79
2021/03/23 07:33:47;;;;;;;0.00;0.00;;;7.10;61.70;;;;;;4935049;29;20508;-80
2021/03/23 07:36:26;;;;;;;4.80;0.65;;;7.20;61.60;;;;;;4943116;29;20036;-79
2021/03/23 07:38:58;;;;;;;1.98;0.82;;;7.30;61.30;;;;;;4948784;28;20023;-80
2021/03/23 07:41:33;;;;;;;2.83;0.63;;;7.50;61.20;;;;;;4934591;29;20030;-79
2021/03/23 07:44:16;;;;;;;1.38;0.30;;;7.60;61.10;;;;;;4944716;29;20030;-82
2021/03/23 07:46:48;;;;;;;0.55;0.28;;;7.70;60.80;;;;;;4940326;28;20042;-79
2021/03/23 07:49:31;;;;;;;2.53;1.15;;;7.80;60.80;;;;;;4948931;29;20027;-79
2021/03/23 07:52:25;;;;;;;1.83;0.90;;;7.80;60.70;;;;;;4935892;29;20046;-79
2021/03/23 07:54:51;;;;;;;1.48;0.70;;;7.90;60.60;;;;;;4967658;28;20042;-81
2021/03/23 07:57:45;;;;;;;3.47;0.73;;;7.90;60.60;;;;;;4944530;28;20437;-80
2021/03/23 08:00:26;;;;;;;0.93;0.57;;;8.10;60.50;;;;;;4942114;28;20040;-79
2021/03/23 08:03:07;;;;;;;1.02;0.52;;;8.20;60.20;;;;;;4946640;29;20032;-79
2021/03/23 08:05:50;;;;;;;2.40;1.10;;;8.40;60.00;;;;;;4953358;28;20047;-80
2021/03/23 08:08:17;;;;;;;2.25;0.60;;;8.50;59.90;;;;;;4957832;28;20030;-80
2021/03/23 08:11:12;;;;;;;0.85;0.20;;;8.60;59.80;;;;;;4967038;28;20401;-80
2021/03/23 08:13:45;;;;;;;2.40;0.98;;;8.80;59.60;;;;;;4955140;28;20523;-81
2021/03/23 08:16:33;;;;;;;2.40;0.77;;;9.00;59.40;;;;;;4968571;28;20123;-80
2021/03/23 08:19:09;;;;;;;1.58;0.63;;;9.20;59.20;;;;;;4953225;28;20050;-81
2021/03/23 08:21:49;;;;;;;2.50;0.85;;;9.60;58.90;;;;;;4933848;29;20035;-79
2021/03/23 08:24:21;;;;;;;2.40;0.88;;;9.90;58.50;;;;;;4946084;28;20041;-80
2021/03/23 08:27:29;;;;;;;1.52;0.28;;;10.20;58.10;;;;;;4963651;28;20027;-80
2021/03/23 08:30:49;;;;;;;3.13;1.20;;;10.20;57.80;;;;;;4960794;28;20031;-80
2021/03/23 08:33:56;;;;;;;2.53;0.57;;;10.20;57.90;;;;;;4873013;29;20060;-80
2021/03/23 08:36:38;;;;;;;3.10;0.90;;;10.20;58.10;;;;;;4884315;29;20406;-80
2021/03/23 08:39:30;;;;;;;;;;;10.50;58.00;;;;;;4870474;29;20048;-80
2021/03/23 08:42:13;;;;;;;3.15;0.57;;;10.70;57.60;;;;;;4860177;29;19912;-80
2021/03/23 08:44:42;;;;;;;2.45;0.50;;;10.90;57.20;;;;;;4858456;29;20093;-80
2021/03/23 08:47:19;;;;;;;2.88;0.95;;;11.00;57.00;;;;;;4858479;29;20041;-80
2021/03/23 08:49:45;;;;;;;3.60;0.80;;;11.00;57.00;;;;;;4854637;29;20038;-80
2021/03/23 08:52:20;;;;;;;1.15;0.75;;;10.90;57.00;;;;;;4858996;29;20498;-82
2021/03/23 08:54:51;;;;;;;1.63;0.90;;;11.00;57.00;;;;;;4827814;29;20045;-80
2021/03/23 08:57:17;;;;;;;0.17;0.10;;;11.10;57.00;;;;;;4857911;29;20045;-80
2021/03/23 08:59:46;;;;;;;5.75;1.00;;;11.20;56.80;;;;;;4855759;29;20045;-81
2021/03/23 09:02:12;;;;;;;5.28;1.13;;;11.30;56.40;;;;;;4852265;29;20037;-80
2021/03/23 09:04:42;;;;;;;1.08;0.38;;;11.40;56.20;;;;;;4857245;29;20038;-80
2021/03/23 09:07:18;;;;;;;7.65;1.30;;;11.40;56.20;;;;;;4829417;29;20053;-81
2021/03/23 09:09:49;;;;;;;1.52;0.40;;;11.50;56.10;;;;;;4858146;29;20047;-80
2021/03/23 09:12:41;;;;;;;3.45;0.88;;;11.60;55.90;;;;;;4879969;29;20569;-80
2021/03/23 09:15:11;;;;;;;2.15;0.65;;;11.70;55.80;;;;;;4879965;29;20148;-80
2021/03/23 09:17:59;;;;;;;0.00;0.00;;;12.10;55.50;;;;;;4896008;28;20486;-80
2021/03/23 09:20:32;;;;;;;5.57;1.60;;;12.30;55.10;;;;;;4943287;29;20038;-80
2021/03/23 09:23:25;;;;;;;0.35;0.13;;;12.40;54.80;;;;;;4957718;28;20373;-81
2021/03/23 09:25:54;;;;;;;4.15;0.65;;;12.40;54.60;;;;;;4967397;28;20338;-81
2021/03/23 09:28:45;;;;;;;9.50;1.15;;;12.30;54.40;;;;;;4938688;28;20022;-81
2021/03/23 09:31:18;;;;;;;0.00;0.00;;;12.30;54.60;;;;;;4957379;28;20028;-83
2021/03/23 09:33:54;;;;;;;0.00;0.00;;;12.40;54.50;;;;;;4953205;28;20042;-80
2021/03/23 09:36:35;;;;;;;1.67;0.43;;;12.50;54.40;;;;;;4940522;29;20378;-82
2021/03/23 09:39:16;;;;;;;2.53;0.75;;;12.50;54.20;;;;;;4955241;28;20027;-81
2021/03/23 09:42:13;;;;;;;1.85;0.28;;;12.70;54.20;;;;;;4964291;28;20039;-81
2021/03/23 09:44:42;;;;;;;1.13;0.20;;;12.90;53.90;;;;;;4949248;28;20046;-81
2021/03/23 09:47:13;;;;;;;0.90;0.47;;;13.00;53.50;;;;;;4934047;29;20042;-80
2021/03/23 09:49:48;;;;;;;1.30;0.70;;;13.10;53.40;;;;;;4944184;28;20035;-81
2021/03/23 09:52:18;;;;;;;0.00;0.00;;;13.10;53.40;;;;;;4971579;28;20031;-82
2021/03/23 09:54:57;;;;;;;1.97;0.50;;;13.20;53.00;;;;;;4937350;28;20050;-81
2021/03/23 09:57:25;;;;;;;3.05;0.65;;;13.20;53.00;;;;;;4959157;28;20286;-80
2021/03/23 09:59:57;;;;;;;2.78;0.60;;;13.20;53.00;;;;;;4931278;28;20388;-82
2021/03/23 10:02:32;;;;;;;7.32;1.60;;;13.20;52.90;;;;;;4938882;28;20035;-80
2021/03/23 10:05:16;;;;;;;1.70;0.73;;;13.20;52.90;;;;;;4965942;28;20503;-80
2021/03/23 10:07:43;;;;;;;1.50;0.60;;;13.50;52.80;;;;;;4960111;28;20507;-81
2021/03/23 10:10:20;;;;;;;4.47;1.25;;;13.80;52.40;;;;;;4926103;28;20046;-81
2021/03/23 10:12:46;;;;;;;3.25;0.80;;;13.90;52.30;;;;;;4955464;28;20050;-80
2021/03/23 10:15:28;;;;;;;6.38;0.63;;;14.10;51.90;;;;;;4958875;28;20043;-80
2021/03/23 10:18:16;;;;;;;2.17;0.55;;;14.10;51.70;;;;;;4964707;28;20039;-80
2021/03/23 10:21:07;;;;;;;5.65;1.48;;;14.20;51.80;;;;;;4967736;28;20034;-80
2021/03/23 10:23:34;;;;;;;2.85;0.90;;;14.20;51.30;;;;;;4966094;28;20043;-82
2021/03/23 10:26:06;;;;;;;3.22;0.20;;;14.20;51.30;;;;;;4945917;28;20035;-82
2021/03/23 10:28:50;;;;;;;0.22;0.00;;;14.20;51.00;;;;;;4969913;28;20400;-81
2021/03/23 10:31:30;;;;;;;5.25;0.80;;;14.20;50.80;;;;;;4925376;29;20400;-80
2021/03/23 10:34:24;;;;;;;3.33;1.40;;;14.20;51.10;;;;;;4954591;28;20043;-81
2021/03/23 10:37:04;;;;;;;1.17;0.30;;;14.50;51.10;;;;;;4952669;28;20046;-81
2021/03/23 10:39:43;;;;;;;4.30;0.57;;;14.70;50.50;;;;;;4943233;28;20372;-80
2021/03/23 10:42:22;;;;;;;1.85;0.52;;;14.80;50.30;;;;;;4958304;28;20038;-80
2021/03/23 10:44:49;;;;;;;1.60;0.35;;;14.90;50.30;;;;;;4928951;29;20051;-81
2021/03/23 10:47:38;;;;;;;1.27;0.73;;;14.90;50.20;;;;;;4947855;28;20047;-80
2021/03/23 10:50:24;;;;;;;6.25;1.02;;;15.10;50.30;;;;;;4959645;28;20030;-80
2021/03/23 10:52:50;;;;;;;3.03;1.13;;;15.20;50.10;;;;;;4950178;28;20375;-80
2021/03/23 10:55:24;;;;;;;4.90;1.00;;;15.20;49.70;;;;;;4944351;28;20041;-82
2021/03/23 10:57:50;;;;;;;3.45;0.35;;;15.00;49.40;;;;;;4955837;28;20030;-80
2021/03/23 11:00:34;;;;;;;1.45;0.45;;;15.10;49.80;;;;;;4953548;28;20476;-81
2021/03/23 11:03:28;;;;;;;3.30;0.63;;;15.10;49.70;;;;;;4963438;28;20026;-80
2021/03/23 11:05:54;;;;;;;4.28;0.55;;;15.00;49.50;;;;;;4962701;28;20423;-81
2021/03/23 11:08:20;;;;;;;1.20;0.30;;;15.10;49.70;;;;;;4963140;28;20035;-81
2021/03/23 11:10:47;;;;;;;1.52;0.55;;;15.20;49.40;;;;;;4949893;28;20043;-80
2021/03/23 11:13:14;;;;;;;6.32;0.95;;;15.30;49.40;;;;;;4970621;28;20038;-80
2021/03/23 11:15:45;;;;;;;2.17;0.60;;;15.30;49.00;;;;;;4950505;28;20424;-80
2021/03/23 11:18:22;;;;;;;0.93;0.40;;;15.30;49.00;;;;;;4958227;28;20026;-80
2021/03/23 11:20:48;;;;;;;1.35;0.45;;;15.30;49.00;;;;;;4965005;28;20039;-80
2021/03/23 11:23:54;;;;;;;0.00;0.00;;;15.50;49.10;;;;;;4942681;28;20031;-80
2021/03/23 11:26:21;;;;;;;2.42;0.50;;;15.60;48.70;;;;;;4963454;28;20039;-80
2021/03/23 11:28:52;;;;;;;0.93;0.30;;;15.60;48.50;;;;;;4967474;28;20027;-81
2021/03/23 11:31:19;;;;;;;2.72;1.05;;;15.50;48.60;;;;;;4969036;28;20042;-81
2021/03/23 11:33:45;;;;;;;0.98;0.35;;;15.40;48.60;;;;;;4951859;28;20030;-80
2021/03/23 11:36:11;;;;;;;0.75;0.28;;;15.20;48.50;;;;;;4938250;29;20136;-80
2021/03/23 11:38:38;;;;;;;1.02;0.32;;;15.20;48.50;;;;;;4922055;28;20045;-81
2021/03/23 11:41:07;;;;;;;2.65;0.60;;;15.10;48.50;;;;;;4964827;28;20435;-80
2021/03/23 11:43:50;;;;;;;2.05;0.73;;;15.10;48.50;;;;;;4943141;28;20047;-81
2021/03/23 11:46:48;;;;;;;6.72;1.17;;;15.30;48.60;;;;;;4956143;28;20035;-80
2021/03/23 11:49:45;;;;;;;2.10;0.65;;;15.70;48.30;;;;;;4967297;28;20047;-81
2021/03/23 11:52:12;;;;;;;0.88;0.47;;;16.00;47.80;;;;;;4955824;28;20391;-81
2021/03/23 11:54:38;;;;;;;1.45;0.90;;;16.10;47.70;;;;;;4950397;28;20038;-81
2021/03/23 11:57:08;;;;;;;2.70;0.70;;;16.10;47.20;;;;;;4969215;28;20030;-81
2021/03/23 11:59:35;;;;;;;3.92;0.90;;;16.20;47.50;;;;;;4945046;28;20082;-80
2021/03/23 12:02:01;;;;;;;3.38;0.70;;;16.30;47.20;;;;;;4960091;28;20042;-81
2021/03/23 12:04:28;;;;;;;4.68;1.40;;;16.50;47.10;;;;;;4965830;28;20030;-80
2021/03/23 12:07:22;;;;;;;0.90;0.30;;;16.50;46.60;;;;;;4968267;28;20419;-81
2021/03/23 12:10:17;;;;;;;0.90;0.35;;;16.40;46.90;;;;;;4973617;28;20027;-81
2021/03/23 12:12:44;;;;;;;1.55;0.80;;;16.40;46.80;;;;;;4966917;28;20035;-81
2021/03/23 12:15:13;;;;;;;0.68;0.50;;;16.40;46.90;;;;;;4951621;28;20530;-81
2021/03/23 12:17:41;;;;;;;4.05;0.68;;;16.40;46.70;;;;;;4961984;28;20058;-82
2021/03/23 12:20:11;;;;;;;1.75;0.55;;;16.30;46.70;;;;;;4945211;28;20030;-81
2021/03/23 12:22:38;;;;;;;0.43;0.15;;;16.40;46.90;;;;;;4967391;28;20022;-80
2021/03/23 12:25:06;;;;;;;2.47;0.57;;;16.60;46.70;;;;;;4954295;28;20031;-80
2021/03/23 12:27:32;;;;;;;2.28;0.55;;;16.70;46.40;;;;;;4952386;28;20054;-81
2021/03/23 12:30:01;;;;;;;0.10;0.10;;;16.60;46.30;;;;;;4952322;28;20023;-82
2021/03/23 12:32:27;;;;;;;1.65;0.50;;;16.50;46.30;;;;;;4945973;28;20043;-80
2021/03/23 12:34:53;;;;;;;7.22;0.50;;;16.50;46.50;;;;;;4942975;28;20073;-81
2021/03/23 12:37:20;;;;;;;1.52;0.43;;;16.60;46.30;;;;;;4967104;28;20030;-81
2021/03/23 12:39:46;;;;;;;3.03;0.43;;;16.60;46.30;;;;;;4951101;28;20027;-81
2021/03/23 12:42:16;;;;;;;2.17;0.85;;;16.60;46.30;;;;;;4943270;29;20484;-81
2021/03/23 12:44:42;;;;;;;3.20;0.80;;;16.70;46.30;;;;;;4959231;28;20023;-80
2021/03/23 12:47:09;;;;;;;0.95;0.40;;;17.00;46.20;;;;;;4958800;28;20380;-81
2021/03/23 12:49:35;;;;;;;1.77;0.30;;;17.30;46.00;;;;;;4949457;28;20034;-80
2021/03/23 12:52:02;;;;;;;1.77;0.28;;;17.50;45.70;;;;;;4953938;28;20047;-82
2021/03/23 12:54:45;;;;;;;6.10;1.23;;;17.80;45.50;;;;;;4952044;28;20360;-80
2021/03/23 12:57:18;;;;;;;0.82;0.30;;;18.00;45.40;;;;;;4959602;28;20053;-80
2021/03/23 12:59:45;;;;;;;0.70;0.40;;;18.10;45.30;;;;;;4960282;28;20083;-81
2021/03/23 13:02:12;;;;;;;1.52;0.45;;;18.10;44.80;;;;;;4943934;28;20038;-80
2021/03/23 13:04:38;;;;;;;0.50;0.22;;;18.00;44.90;;;;;;4936724;29;20480;-80
2021/03/23 13:07:06;;;;;;;10.35;1.40;;;17.70;44.80;;;;;;4970268;28;20050;-81
2021/03/23 13:09:34;;;;;;;2.60;0.35;;;17.40;45.00;;;;;;4942074;29;20376;-81
2021/03/23 13:12:00;;;;;;;0.77;0.40;;;17.20;45.30;;;;;;4950011;28;20042;-80
2021/03/23 13:14:28;;;;;;;1.25;0.28;;;17.20;45.60;;;;;;4960217;28;20034;-80
2021/03/23 13:16:54;;;;;;;0.95;0.45;;;17.40;45.60;;;;;;4940643;28;20047;-81
2021/03/23 13:19:20;;;;;;;2.08;0.65;;;17.60;45.40;;;;;;4965215;28;20369;-80